createdAt,value
2023-01-26T00:01:18.712Z,1.45
2023-01-26T00:03:45.965Z,1.51
2023-01-26T00:06:15.348Z,1.56
2023-01-26T00:08:44.156Z,1.44
2023-01-26T00:11:13.299Z,1.40
2023-01-26T00:13:40.128Z,1.41
2023-01-26T00:16:14.955Z,1.44
2023-01-26T00:18:41.938Z,1.39
2023-01-26T00:21:20.350Z,1.46
2023-01-26T00:23:49.162Z,1.47
2023-01-26T00:26:19.075Z,1.45
2023-01-26T00:28:45.646Z,1.47
2023-01-26T00:31:17.154Z,1.40
2023-01-26T00:33:43.784Z,1.54
2023-01-26T00:36:10.436Z,1.54
2023-01-26T00:38:37.225Z,1.42
2023-01-26T00:41:03.961Z,1.48
2023-01-26T00:43:30.563Z,1.46
2023-01-26T00:45:56.966Z,1.38
2023-01-26T00:48:24.867Z,1.44
2023-01-26T00:50:52.523Z,1.43
2023-01-26T00:53:19.148Z,1.46
2023-01-26T00:55:45.691Z,1.41
2023-01-26T00:58:12.047Z,1.40
2023-01-26T01:00:38.897Z,1.41
2023-01-26T01:03:06.459Z,1.37
2023-01-26T01:05:34.126Z,1.38
2023-01-26T01:08:02.537Z,1.36
2023-01-26T01:10:29.383Z,1.22
2023-01-26T01:12:57.563Z,1.30
2023-01-26T01:15:25.087Z,1.39
2023-01-26T01:17:51.693Z,1.40
2023-01-26T01:20:18.238Z,1.40
2023-01-26T01:22:44.864Z,1.48
2023-01-26T01:25:13.979Z,1.22
2023-01-26T01:27:40.903Z,0.94
2023-01-26T01:30:08.679Z,0.91
2023-01-26T01:32:36.522Z,0.87
2023-01-26T01:35:03.868Z,0.97
2023-01-26T01:37:30.994Z,1.03
2023-01-26T01:39:57.583Z,0.86
2023-01-26T01:42:24.458Z,0.87
2023-01-26T01:45:37.285Z,0.91
2023-01-26T01:48:05.232Z,1.02
2023-01-26T01:50:37.219Z,1.10
2023-01-26T01:53:04.408Z,1.16
2023-01-26T01:55:31.203Z,1.18
2023-01-26T01:58:00.219Z,1.20
2023-01-26T02:00:28.071Z,1.11
2023-01-26T02:03:16.820Z,1.16
2023-01-26T02:06:09.290Z,1.15
2023-01-26T02:08:43.806Z,1.29
2023-01-26T02:11:20.629Z,1.37
2023-01-26T02:13:49.021Z,1.24
2023-01-26T02:16:16.351Z,1.19
2023-01-26T02:18:44.041Z,1.10
2023-01-26T02:21:13.289Z,1.07
2023-01-26T02:24:08.166Z,1.12
2023-01-26T02:26:36.178Z,1.11
2023-01-26T02:29:07.870Z,1.17
2023-01-26T02:31:35.048Z,1.20
2023-01-26T02:34:01.897Z,1.28
2023-01-26T02:36:30.643Z,1.26
2023-01-26T02:39:19.460Z,1.31
2023-01-26T02:42:06.416Z,1.29
2023-01-26T02:44:33.259Z,1.23
2023-01-26T02:47:00.278Z,1.28
2023-01-26T02:49:45.988Z,1.32
2023-01-26T02:52:13.351Z,1.31
2023-01-26T02:54:58.985Z,1.33
2023-01-26T02:57:26.573Z,1.31
2023-01-26T02:59:53.220Z,1.20
2023-01-26T03:02:19.759Z,1.22
2023-01-26T03:04:46.276Z,1.16
2023-01-26T03:07:12.746Z,1.00
2023-01-26T03:09:39.164Z,1.00
2023-01-26T03:12:06.164Z,1.04
2023-01-26T03:14:33.217Z,1.12
2023-01-26T03:16:59.923Z,1.17
2023-01-26T03:19:45.313Z,1.22
2023-01-26T03:22:35.797Z,1.07
2023-01-26T03:25:21.112Z,1.18
2023-01-26T03:27:48.857Z,1.12
2023-01-26T03:30:18.471Z,1.15
2023-01-26T03:32:45.749Z,1.16
2023-01-26T03:35:15.545Z,1.18
2023-01-26T03:37:54.497Z,1.05
2023-01-26T03:40:39.711Z,1.10
2023-01-26T03:43:28.103Z,1.18
2023-01-26T03:46:13.511Z,1.18
2023-01-26T03:48:58.755Z,1.14
2023-01-26T03:51:44.207Z,1.10
2023-01-26T03:54:29.535Z,1.13
2023-01-26T03:56:55.924Z,1.15
2023-01-26T03:59:38.268Z,1.20
2023-01-26T04:02:29.202Z,1.27
2023-01-26T04:05:14.290Z,1.13
2023-01-26T04:08:00.435Z,1.19
2023-01-26T04:10:27.442Z,1.15
2023-01-26T04:13:12.410Z,1.09
2023-01-26T04:15:57.841Z,1.11
2023-01-26T04:18:42.909Z,1.16
2023-01-26T04:21:28.214Z,1.17
2023-01-26T04:23:58.302Z,1.21
2023-01-26T04:26:36.759Z,1.21
2023-01-26T04:29:23.825Z,1.16
2023-01-26T04:31:50.535Z,1.22
2023-01-26T04:34:16.972Z,1.15
2023-01-26T04:36:43.555Z,1.17
2023-01-26T04:39:10.658Z,1.18
2023-01-26T04:41:37.140Z,1.15
2023-01-26T04:44:03.657Z,1.01
2023-01-26T04:46:30.106Z,1.11
2023-01-26T04:48:56.533Z,1.09
2023-01-26T04:51:23.034Z,1.09
2023-01-26T04:53:51.174Z,1.12
2023-01-26T04:56:29.668Z,1.14
2023-01-26T04:58:59.022Z,1.06
2023-01-26T05:01:25.702Z,1.13
2023-01-26T05:03:52.778Z,1.07
2023-01-26T05:06:19.376Z,1.16
2023-01-26T05:08:45.783Z,1.18
2023-01-26T05:11:12.178Z,1.19
2023-01-26T05:13:39.499Z,1.25
2023-01-26T05:16:07.832Z,1.22
2023-01-26T05:18:34.429Z,1.22
2023-01-26T05:21:00.935Z,1.20
2023-01-26T05:23:27.480Z,1.07
2023-01-26T05:25:55.045Z,1.07
2023-01-26T05:28:21.465Z,1.03
2023-01-26T05:30:48.057Z,1.00
2023-01-26T05:33:15.674Z,1.16
2023-01-26T05:35:42.833Z,1.06
2023-01-26T05:38:09.317Z,1.07
2023-01-26T05:40:35.772Z,0.97
2023-01-26T05:43:03.230Z,1.03
2023-01-26T05:45:30.079Z,1.04
2023-01-26T05:47:59.856Z,1.09
2023-01-26T05:50:26.469Z,1.18
2023-01-26T05:52:52.972Z,1.16
2023-01-26T05:55:20.407Z,1.19
2023-01-26T05:57:46.903Z,1.13
2023-01-26T06:00:15.988Z,1.12
2023-01-26T06:02:42.452Z,1.14
2023-01-26T06:05:09.330Z,0.99
2023-01-26T06:07:35.740Z,1.13
2023-01-26T06:10:02.203Z,1.11
2023-01-26T06:12:35.258Z,1.10
2023-01-26T06:15:02.374Z,1.04
2023-01-26T06:17:28.775Z,1.02
2023-01-26T06:19:55.129Z,1.03
2023-01-26T06:22:21.757Z,1.15
2023-01-26T06:24:48.160Z,1.07
2023-01-26T06:27:15.996Z,1.08
2023-01-26T06:29:44.670Z,1.03
2023-01-26T06:32:12.444Z,1.06
2023-01-26T06:34:38.970Z,1.09
2023-01-26T06:37:05.786Z,1.09
2023-01-26T06:39:32.289Z,1.06
2023-01-26T06:41:58.788Z,1.00
2023-01-26T06:44:25.259Z,0.93
2023-01-26T06:46:51.637Z,1.08
2023-01-26T06:49:18.035Z,0.99
2023-01-26T06:51:47.514Z,1.05
2023-01-26T06:54:14.913Z,1.06
2023-01-26T06:56:41.466Z,1.04
2023-01-26T06:59:10.654Z,1.07
2023-01-26T07:01:39.812Z,1.06
2023-01-26T07:04:06.340Z,0.96
2023-01-26T07:06:32.862Z,1.02
2023-01-26T07:08:59.241Z,1.03
2023-01-26T07:11:25.874Z,1.15
2023-01-26T07:13:53.406Z,1.07
2023-01-26T07:16:19.895Z,1.10
2023-01-26T07:18:46.509Z,1.10
2023-01-26T07:21:15.259Z,1.07
2023-01-26T07:23:42.583Z,1.14
2023-01-26T07:26:09.404Z,1.23
2023-01-26T07:28:35.858Z,1.16
2023-01-26T07:31:03.850Z,1.17
2023-01-26T07:33:31.209Z,1.22
2023-01-26T07:35:58.377Z,1.20
2023-01-26T07:38:25.634Z,1.31
2023-01-26T07:40:52.326Z,1.32
2023-01-26T07:43:21.884Z,1.26
2023-01-26T07:45:51.502Z,1.31
2023-01-26T07:48:21.781Z,1.32
2023-01-26T07:50:48.614Z,1.34
2023-01-26T07:53:16.766Z,1.36
2023-01-26T07:55:46.327Z,1.43
2023-01-26T07:58:13.111Z,1.45
2023-01-26T08:00:40.820Z,1.35
2023-01-26T08:03:08.119Z,1.22
2023-01-26T08:05:35.803Z,1.39
2023-01-26T08:08:02.532Z,1.27
2023-01-26T08:10:31.594Z,1.23
2023-01-26T08:13:01.230Z,1.37
2023-01-26T08:15:28.550Z,1.40
2023-01-26T08:17:55.044Z,1.47
2023-01-26T08:20:22.013Z,1.49
2023-01-26T08:22:48.469Z,1.49
2023-01-26T08:25:14.972Z,1.48
2023-01-26T08:27:41.387Z,1.46
2023-01-26T08:30:08.473Z,1.50
2023-01-26T08:32:35.104Z,1.54
2023-01-26T08:35:02.718Z,1.49
2023-01-26T08:37:29.352Z,1.50
2023-01-26T08:39:55.961Z,1.43
2023-01-26T08:42:22.922Z,1.44
2023-01-26T08:44:50.528Z,1.37
2023-01-26T08:47:17.120Z,1.39
2023-01-26T08:49:43.492Z,1.46
2023-01-26T08:52:09.849Z,1.38
2023-01-26T08:54:36.449Z,1.36
2023-01-26T08:57:02.852Z,1.36
2023-01-26T08:59:29.221Z,1.37
2023-01-26T09:01:55.998Z,1.44
2023-01-26T09:04:22.535Z,1.39
2023-01-26T09:06:48.887Z,1.31
2023-01-26T09:09:15.588Z,1.20
2023-01-26T09:11:43.040Z,1.20
2023-01-26T09:14:09.542Z,1.28
2023-01-26T09:16:36.064Z,1.18
2023-01-26T09:19:02.699Z,1.20
2023-01-26T09:21:29.113Z,1.17
2023-01-26T09:23:56.443Z,1.13
2023-01-26T09:26:23.145Z,1.17
2023-01-26T09:28:51.547Z,1.20
2023-01-26T09:31:18.420Z,1.30
2023-01-26T09:33:45.455Z,1.25
2023-01-26T09:36:12.699Z,1.27
2023-01-26T09:38:40.008Z,1.39
2023-01-26T09:41:17.959Z,1.31
2023-01-26T09:43:48.661Z,1.44
2023-01-26T09:46:15.078Z,1.39
2023-01-26T09:49:06.477Z,1.28
2023-01-26T09:52:02.358Z,1.36
2023-01-26T09:54:33.979Z,1.31
2023-01-26T09:57:02.005Z,1.14
2023-01-26T09:59:38.324Z,1.21
2023-01-26T10:02:21.085Z,1.28
2023-01-26T10:04:50.533Z,1.30
2023-01-26T10:07:17.197Z,1.37
2023-01-26T10:09:46.707Z,1.39
2023-01-26T10:12:24.901Z,1.41
2023-01-26T10:14:57.214Z,1.39
2023-01-26T10:17:41.975Z,1.43
2023-01-26T10:20:28.691Z,1.46
2023-01-26T10:22:59.694Z,1.41
2023-01-26T10:25:37.591Z,1.43
2023-01-26T10:28:28.492Z,1.39
2023-01-26T10:30:55.509Z,1.42
2023-01-26T10:33:28.463Z,1.40
2023-01-26T10:35:55.101Z,1.47
2023-01-26T10:38:37.877Z,1.53
2023-01-26T10:41:26.866Z,1.40
2023-01-26T10:44:02.606Z,1.55
2023-01-26T10:46:34.568Z,1.60
2023-01-26T10:49:03.941Z,1.52
2023-01-26T10:51:35.016Z,1.56
2023-01-26T10:54:22.179Z,1.51
2023-01-26T10:57:24.275Z,1.50
2023-01-26T11:00:00.233Z,1.50
2023-01-26T11:02:29.044Z,1.50
2023-01-26T11:05:03.081Z,1.33
2023-01-26T11:07:34.889Z,1.44
2023-01-26T11:10:37.715Z,1.33
2023-01-26T11:13:20.059Z,1.35
2023-01-26T11:16:22.490Z,1.28
2023-01-26T11:18:51.992Z,1.29
2023-01-26T11:21:36.054Z,1.24
2023-01-26T11:24:30.444Z,1.29
2023-01-26T11:27:13.975Z,1.37
2023-01-26T11:30:07.108Z,1.32
2023-01-26T11:32:55.533Z,1.40
2023-01-26T11:35:39.428Z,1.39
2023-01-26T11:38:30.843Z,1.33
2023-01-26T11:41:24.454Z,1.29
2023-01-26T11:44:13.797Z,1.36
2023-01-26T11:46:40.142Z,1.30
2023-01-26T11:49:18.994Z,1.31
2023-01-26T11:52:03.948Z,1.29
2023-01-26T11:55:00.490Z,1.29
2023-01-26T11:57:56.153Z,1.44
2023-01-26T12:00:30.357Z,1.34
2023-01-26T12:03:05.807Z,1.43
2023-01-26T12:05:44.483Z,1.40
2023-01-26T12:08:25.007Z,1.38
2023-01-26T12:10:54.407Z,1.33
2023-01-26T12:13:39.261Z,1.32
2023-01-26T12:16:13.236Z,1.43
2023-01-26T12:18:55.799Z,1.40
2023-01-26T12:21:26.431Z,1.55
2023-01-26T12:23:59.466Z,1.58
2023-01-26T12:26:31.078Z,1.51
2023-01-26T12:29:10.106Z,1.43
2023-01-26T12:31:50.114Z,1.25
2023-01-26T12:34:16.772Z,1.20
2023-01-26T12:37:12.506Z,1.18
2023-01-26T12:39:45.671Z,1.08
2023-01-26T12:42:26.366Z,1.05
2023-01-26T12:45:02.065Z,1.17
2023-01-26T12:47:33.684Z,1.10
2023-01-26T12:50:30.727Z,1.22
2023-01-26T12:53:07.543Z,1.27
2023-01-26T12:55:40.920Z,1.22
2023-01-26T12:58:21.711Z,1.27
2023-01-26T13:00:55.298Z,1.05
2023-01-26T13:03:44.414Z,1.09
2023-01-26T13:06:10.960Z,1.10
2023-01-26T13:08:37.462Z,1.10
2023-01-26T13:11:06.857Z,1.08
2023-01-26T13:13:55.588Z,1.09
2023-01-26T13:16:24.916Z,1.12
2023-01-26T13:18:56.004Z,1.22
2023-01-26T13:21:38.160Z,1.34
2023-01-26T13:24:30.796Z,1.27
2023-01-26T13:26:58.348Z,1.35
2023-01-26T13:29:24.733Z,1.37
2023-01-26T13:31:55.830Z,1.38
2023-01-26T13:34:27.284Z,1.44
2023-01-26T13:36:56.152Z,1.34
2023-01-26T13:39:35.247Z,1.37
2023-01-26T13:42:02.170Z,1.40
2023-01-26T13:44:40.505Z,1.31
2023-01-26T13:47:11.691Z,1.32
2023-01-26T13:49:42.776Z,1.32
2023-01-26T13:52:25.793Z,1.42
2023-01-26T13:54:54.526Z,1.27
2023-01-26T13:57:23.394Z,1.30
2023-01-26T13:59:52.172Z,1.02
2023-01-26T14:02:31.108Z,1.04
2023-01-26T14:04:59.419Z,1.12
2023-01-26T14:07:39.958Z,0.99
2023-01-26T14:10:07.218Z,0.91
2023-01-26T14:12:36.324Z,0.88
2023-01-26T14:15:05.904Z,0.87
2023-01-26T14:17:34.590Z,0.90
2023-01-26T14:20:03.537Z,0.95
2023-01-26T14:22:31.239Z,0.92
2023-01-26T14:24:57.714Z,0.87
2023-01-26T14:27:35.919Z,0.88
2023-01-26T14:30:22.957Z,0.88
2023-01-26T14:32:54.995Z,0.99
2023-01-26T14:35:23.391Z,1.06
2023-01-26T14:37:50.669Z,0.95
2023-01-26T14:40:21.917Z,0.97
2023-01-26T14:42:50.365Z,0.94
2023-01-26T14:45:17.183Z,0.82
2023-01-26T14:47:45.245Z,0.77
2023-01-26T14:50:16.510Z,0.79
2023-01-26T14:52:44.879Z,0.76
2023-01-26T14:55:26.287Z,0.72
2023-01-26T14:57:53.948Z,0.81
2023-01-26T15:00:36.039Z,0.68
2023-01-26T15:03:07.783Z,0.68
2023-01-26T15:05:38.883Z,0.70
2023-01-26T15:08:17.930Z,0.79
2023-01-26T15:11:18.407Z,0.77
2023-01-26T15:13:46.926Z,0.80
2023-01-26T15:16:19.069Z,0.71
2023-01-26T15:18:47.583Z,0.73
2023-01-26T15:21:18.364Z,0.68
2023-01-26T15:23:52.651Z,0.71
2023-01-26T15:26:31.955Z,0.71
2023-01-26T15:29:00.678Z,0.69
2023-01-26T15:31:38.278Z,0.58
2023-01-26T15:34:06.022Z,0.53
2023-01-26T15:36:49.780Z,0.47
2023-01-26T15:39:18.281Z,0.47
2023-01-26T15:41:46.973Z,0.45
2023-01-26T15:44:16.061Z,0.47
2023-01-26T15:46:42.997Z,0.44
2023-01-26T15:49:09.487Z,0.44
2023-01-26T15:51:36.977Z,0.49
2023-01-26T15:54:04.002Z,0.31
2023-01-26T15:56:31.058Z,0.29
2023-01-26T15:58:57.957Z,0.26
2023-01-26T16:01:24.735Z,0.31
2023-01-26T16:03:51.641Z,0.31
2023-01-26T16:06:22.533Z,0.29
2023-01-26T16:08:49.131Z,0.35
2023-01-26T16:11:15.543Z,0.31
2023-01-26T16:13:57.280Z,0.36
2023-01-26T16:16:29.693Z,0.22
2023-01-26T16:18:56.843Z,0.25
2023-01-26T16:21:26.516Z,0.30
2023-01-26T16:23:52.953Z,0.30
2023-01-26T16:26:19.774Z,0.31
2023-01-26T16:28:47.353Z,0.32
2023-01-26T16:31:26.316Z,0.28
2023-01-26T16:33:53.016Z,0.27
2023-01-26T16:36:20.239Z,0.25
2023-01-26T16:38:47.457Z,0.23
2023-01-26T16:41:24.569Z,0.16
2023-01-26T16:43:55.915Z,0.12
2023-01-26T16:46:22.748Z,0.09
2023-01-26T16:48:49.417Z,0.17
2023-01-26T16:51:19.573Z,0.25
2023-01-26T16:53:46.789Z,0.17
2023-01-26T16:56:14.413Z,0.10
2023-01-26T16:58:40.798Z,-0.02
2023-01-26T17:01:14.530Z,0.03
2023-01-26T17:03:40.930Z,0.02
2023-01-26T17:06:07.360Z,0.01
2023-01-26T17:08:33.808Z,0.09
2023-01-26T17:11:02.773Z,-0.04
2023-01-26T17:13:29.580Z,0.02
2023-01-26T17:15:57.048Z,0.01
2023-01-26T17:18:23.705Z,-0.04
2023-01-26T17:20:51.481Z,-0.17
2023-01-26T17:23:17.889Z,-0.05
2023-01-26T17:25:44.273Z,-0.10
2023-01-26T17:28:10.689Z,-0.07
2023-01-26T17:30:37.362Z,-0.04
2023-01-26T17:33:04.046Z,-0.09
2023-01-26T17:35:30.717Z,-0.11
2023-01-26T17:37:57.139Z,-0.04
2023-01-26T17:40:23.637Z,-0.09
2023-01-26T17:42:50.227Z,-0.11
2023-01-26T17:45:16.633Z,-0.14
2023-01-26T17:47:43.492Z,-0.13
2023-01-26T17:50:10.547Z,-0.12
2023-01-26T17:52:38.027Z,-0.10
2023-01-26T17:55:06.214Z,-0.01
2023-01-26T17:57:33.585Z,0.01
2023-01-26T18:00:00.027Z,-0.10
2023-01-26T18:02:27.432Z,0.04
2023-01-26T18:04:53.919Z,-0.04
2023-01-26T18:07:20.626Z,0.02
2023-01-26T18:09:46.981Z,-0.02
2023-01-26T18:12:13.466Z,-0.12
2023-01-26T18:14:39.909Z,-0.19
2023-01-26T18:17:06.531Z,-0.12
2023-01-26T18:19:33.255Z,-0.09
2023-01-26T18:21:59.645Z,-0.09
2023-01-26T18:24:26.151Z,-0.15
2023-01-26T18:26:52.531Z,-0.32
2023-01-26T18:29:21.982Z,-0.26
2023-01-26T18:31:48.571Z,-0.16
2023-01-26T18:34:15.142Z,-0.34
2023-01-26T18:36:41.722Z,-0.23
2023-01-26T18:39:12.407Z,-0.18
2023-01-26T18:41:40.669Z,-0.26
2023-01-26T18:44:11.534Z,-0.20
2023-01-26T18:46:38.316Z,-0.26
2023-01-26T18:49:06.891Z,-0.22
2023-01-26T18:51:36.757Z,-0.15
2023-01-26T18:54:04.766Z,-0.07
2023-01-26T18:56:32.045Z,-0.19
2023-01-26T18:58:58.585Z,-0.16
2023-01-26T19:01:26.158Z,-0.18
2023-01-26T19:04:02.857Z,-0.09
2023-01-26T19:06:30.914Z,-0.15
2023-01-26T19:09:00.627Z,-0.03
2023-01-26T19:11:29.320Z,-0.29
2023-01-26T19:13:56.001Z,-0.20
2023-01-26T19:16:23.116Z,-0.16
2023-01-26T19:18:56.574Z,-0.23
2023-01-26T19:21:24.461Z,-0.18
2023-01-26T19:23:52.768Z,-0.22
2023-01-26T19:26:26.097Z,-0.13
2023-01-26T19:28:53.510Z,-0.12
2023-01-26T19:31:20.240Z,-0.17
2023-01-26T19:33:57.564Z,-0.18
2023-01-26T19:36:24.613Z,-0.15
2023-01-26T19:38:51.374Z,-0.12
2023-01-26T19:41:19.052Z,-0.13
2023-01-26T19:43:45.458Z,-0.30
2023-01-26T19:46:13.643Z,-0.21
2023-01-26T19:48:40.604Z,-0.16
2023-01-26T19:51:12.223Z,-0.22
2023-01-26T19:53:40.873Z,-0.20
2023-01-26T19:56:16.603Z,-0.26
2023-01-26T19:58:44.169Z,-0.18
2023-01-26T20:01:12.054Z,-0.24
2023-01-26T20:03:39.226Z,-0.25
2023-01-26T20:06:06.315Z,-0.22
2023-01-26T20:08:32.996Z,-0.26
2023-01-26T20:11:06.613Z,-0.32
2023-01-26T20:13:33.833Z,-0.29
2023-01-26T20:16:00.990Z,-0.30
2023-01-26T20:18:27.537Z,-0.25
2023-01-26T20:20:55.876Z,-0.32
2023-01-26T20:23:23.688Z,-0.24
2023-01-26T20:25:51.638Z,-0.21
2023-01-26T20:28:18.718Z,-0.22
2023-01-26T20:30:45.532Z,-0.23
2023-01-26T20:33:12.496Z,-0.23
2023-01-26T20:35:40.044Z,-0.19
2023-01-26T20:38:12.909Z,-0.19
2023-01-26T20:40:40.938Z,-0.17
2023-01-26T20:43:07.416Z,-0.19
2023-01-26T20:45:33.827Z,-0.09
2023-01-26T20:48:00.260Z,-0.20
2023-01-26T20:50:26.897Z,-0.14
2023-01-26T20:52:53.517Z,-0.13
2023-01-26T20:55:21.333Z,-0.09
2023-01-26T20:57:47.988Z,-0.06
2023-01-26T21:00:15.104Z,-0.20
2023-01-26T21:02:41.942Z,-0.20
2023-01-26T21:05:08.625Z,-0.18
2023-01-26T21:07:35.067Z,-0.14
2023-01-26T21:10:01.796Z,-0.04
2023-01-26T21:12:28.402Z,-0.04
2023-01-26T21:14:54.855Z,-0.17
2023-01-26T21:17:28.621Z,-0.03
2023-01-26T21:19:55.314Z,-0.15
2023-01-26T21:22:21.857Z,-0.12
2023-01-26T21:24:48.434Z,-0.16
2023-01-26T21:27:15.202Z,-0.19
2023-01-26T21:29:41.875Z,-0.19
2023-01-26T21:32:09.013Z,-0.29
2023-01-26T21:34:35.493Z,-0.35
2023-01-26T21:37:02.008Z,-0.18
2023-01-26T21:39:28.562Z,-0.20
2023-01-26T21:41:59.568Z,-0.27
2023-01-26T21:44:30.855Z,-0.27
2023-01-26T21:47:00.011Z,-0.23
2023-01-26T21:49:28.390Z,-0.24
2023-01-26T21:52:13.597Z,-0.24
2023-01-26T21:54:41.195Z,-0.24
2023-01-26T21:57:28.540Z,-0.23
2023-01-26T21:59:55.607Z,-0.29
2023-01-26T22:02:22.269Z,-0.26
2023-01-26T22:04:48.740Z,-0.27
2023-01-26T22:07:15.296Z,-0.30
2023-01-26T22:09:41.752Z,-0.30
2023-01-26T22:12:08.371Z,-0.32
2023-01-26T22:14:34.732Z,-0.24
2023-01-26T22:17:02.016Z,-0.26
2023-01-26T22:19:28.388Z,-0.24
2023-01-26T22:21:55.252Z,-0.22
2023-01-26T22:24:21.710Z,-0.40
2023-01-26T22:26:49.297Z,-0.26
2023-01-26T22:29:16.231Z,-0.34
2023-01-26T22:31:42.927Z,-0.34
2023-01-26T22:34:11.584Z,-0.47
2023-01-26T22:36:38.203Z,-0.48
2023-01-26T22:39:05.586Z,-0.33
2023-01-26T22:41:32.253Z,-0.30
2023-01-26T22:44:00.185Z,-0.36
2023-01-26T22:46:31.357Z,-0.44
2023-01-26T22:48:58.985Z,-0.42
2023-01-26T22:51:28.113Z,-0.44
2023-01-26T22:53:58.368Z,-0.36
2023-01-26T22:56:26.398Z,-0.44
2023-01-26T22:58:58.580Z,-0.41
2023-01-26T23:01:31.420Z,-0.38
2023-01-26T23:03:59.080Z,-0.41
2023-01-26T23:06:26.107Z,-0.41
2023-01-26T23:08:52.838Z,-0.44
2023-01-26T23:11:22.131Z,-0.36
2023-01-26T23:13:49.822Z,-0.35
2023-01-26T23:16:16.919Z,-0.33
2023-01-26T23:18:47.560Z,-0.32
2023-01-26T23:21:14.377Z,-0.31
2023-01-26T23:23:41.160Z,-0.40
2023-01-26T23:26:08.610Z,-0.37
2023-01-26T23:28:40.696Z,-0.33
2023-01-26T23:31:07.345Z,-0.41
2023-01-26T23:33:34.908Z,-0.42
2023-01-26T23:36:01.978Z,-0.36
2023-01-26T23:38:29.991Z,-0.34
2023-01-26T23:40:57.116Z,-0.23
2023-01-26T23:43:24.805Z,-0.31
2023-01-26T23:45:51.819Z,-0.38
2023-01-26T23:48:19.061Z,-0.35
2023-01-26T23:50:46.020Z,-0.32
2023-01-26T23:53:12.917Z,-0.42
2023-01-26T23:55:41.294Z,-0.32
2023-01-26T23:58:10.470Z,-0.25
